気象予報士の航空気象 2010年06月

*All archives   *Admin

2010.06.30 (Wed)

残念

PKで負けました。


今回も遅くまで見たので、明日の会社が心配になるーーー


現実に戻されました。
スポンサーサイト
03:30  |  時事  |  TB(0)  |  CM(0)  |  EDIT  |  Top↑

2010.06.29 (Tue)

パラグアイ戦 天気予報

RJAA 282014Z 16002KT 0400 R16R/0650V1200D R16L/0400V0550N FG
FEW000 BKN001 BKN005 23/22 Q1007
RMK 2ST000 5ST001 6ST005 A2975


関東の早朝は霧。


やっぱり。


そして、今晩11時からパラグアイ戦。


ヨハネスブルック国際空港の飛行場予報は?


FAJS 282200Z 2900/3006 35008KT 9999 BKN015
TEMPO 2902/2907 3000 BR OVC004
BECMG 2908/2910 32012KT SCT030
BECMG 2918/2920 26007KT CAVOK TX15/2912ZTN05/2904Z


イギリス時間で試合開始は、14時です。


試合中は北西の風 6メートル 高度1000メートルに3/8程度の雲 晴れ

試合開始2時間前に最高気温15℃。

昨日の気温は14℃でした。


標高は1000mを超えていて気温も低め、ルクセンブルクでのデンマーク戦と同じような天気のようです。


ブレ球がポイントになるかもしれません。


 
ブログランキングに参加しています。
にほんブログ村 環境ブログ 天気・気象学へ
にほんブログ村
応援クリックをおねがします。


以下、アフィリエイトサイトです。


11:32  |  時事  |  TB(0)  |  CM(0)  |  EDIT  |  Top↑

2010.06.28 (Mon)

熱帯夜、雷雨、霧

RJTT 271930Z VRB02KT 9000 FEW015 SCT140 BKN170 24/22 Q1007
RMK 1CU015 3AC140 6AC170 A2975


関東では、熱帯夜になった地域もあるようです。


昼に散歩をしたら、暑さと湿気で倒れそうになりました。


サウナ風呂の中にいるようでした。


夕方から、雷雨。


RJTT 280830Z VRB02KT 9000 -TSRA SCT030 FEW030CB BKN100 29/23 Q1006
RMK 3CU030 1CB030 7AC100 A2971 FBL TS 10KM SW MOV SE


そして、夜には晴れて霧が発生することでしょう。


RJAA 281430Z 11002KT 3300 BR FEW020 BKN060 24/23 Q1008 NOSIG
RMK 1CU020 6SC060 A2977


夜11時。すでに、視程が落ちてきています。



 
ブログランキングに参加しています。
にほんブログ村 環境ブログ 天気・気象学へ
にほんブログ村
応援クリックをおねがします。


以下、アフィリエイトサイトです。

23:55  |  気象・天気  |  TB(0)  |  CM(0)  |  EDIT  |  Top↑

2010.06.27 (Sun)

ともぞうじいさん

ちびまるこちゃんのおじいさんの声が変わるとか聞いたのですが。。。


見るのを忘れました。


ともぞうじいさん、どんな声になったのでしょう。



 
ブログランキングに参加しています。
にほんブログ村 環境ブログ 天気・気象学へ
にほんブログ村
応援クリックをおねがします。


以下、アフィリエイトサイトです。


23:37  |  時事  |  TB(0)  |  CM(0)  |  EDIT  |  Top↑

2010.06.26 (Sat)

北海道が真っ先に猛暑を記録

RJCC 260500Z 03010KT CAVOK 31/17 Q1010 RMK A2984


北海道で今年初の猛暑日を記録したようです。


夜のNHKのニュースでそういってました。


千歳のMETARを見てみると、お昼過ぎに31℃を記録。


熱い。


冷夏といわれていたような。


まぁ、いっか。


 
ブログランキングに参加しています。
にほんブログ村 環境ブログ 天気・気象学へ
にほんブログ村
応援クリックをおねがします。


以下、アフィリエイトサイトです。




23:09  |  気象・天気  |  TB(0)  |  CM(0)  |  EDIT  |  Top↑

2010.06.25 (Fri)

日本サッカー、次の会場の天気は?

ワールドカップで日本が決勝トーナメント出場決定です。


さて、次の場所は、ロフタス バースフェルド スタジアム。


ハウテン州にあるスタジアムで、使用する空港は、ヨハネスブルグ国際空港。


IATA:JNB

ICAO:FAJS


天気は概ね、晴れ。気温は日中20℃くらいで、夜は5℃くらい。


空気は乾燥。


METARやTAFが調べられそうなサイトで、上のコードを入力すれば、天気予報が見られますよ。



 
ブログランキングに参加しています。
にほんブログ村 環境ブログ 天気・気象学へ
にほんブログ村
応援クリックをおねがします。


以下、アフィリエイトサイトです。




22:30  |  時事  |  TB(0)  |  CM(0)  |  EDIT  |  Top↑

2010.06.24 (Thu)

冷夏のはずが。。。

今年の夏は、冷夏と予報されていました。


これは、過去の天気状況と似ていましたし、合理的な観点からも納得していました。


しかし、今回の3ヶ月予報が一変。


平年より暑い夏を迎えそうです。


南から暖気が流れ込みやすいということで、近々には梅雨前線による被害。


今年は台風の発生数が少ないのですが、今後発生する台風の動向も気になります。



北日本の夏、平年より暑く
   =「冷夏」を修正―気象庁3カ月予報
     6月24日15時14分配信 時事通信


 気象庁は24日、7~9月の3カ月予報を発表した。同庁はこれまで、北日本(北海道と東北)を冷夏と予報していたが、最近の大気の状態を検討した結果、強い太平洋高気圧の影響で南から暖気が流れ込むとして、平年より暑くなると修正した。ただ、8月は平年より低くなる見込み。今夏は全国的に暑くなるという。

 降水量は、北日本で7~8月、沖縄・奄美では9月に平年より多くなる。ほかは平年並み。 


 
ブログランキングに参加しています。
にほんブログ村 環境ブログ 天気・気象学へ
にほんブログ村
応援クリックをおねがします。


以下、アフィリエイトサイトです。




22:15  |  時事  |  TB(0)  |  CM(0)  |  EDIT  |  Top↑

2010.06.23 (Wed)

霧と雨と桜島

RJFK 231000Z 16003KT 130V210 9999 R34/P1800N BCFG FEW001 SCT005 BKN/// 22/21 Q1009
RMK 1ST001 3ST005 A2980 1000SE FG NE-SE VOLCANIC ASH CLOUD S


関東はお昼ごろ、かなりの雨が降りました。


大雨が続いている鹿児島では、火山活動も活発で、注意が必要です。


少し前のFBJPにおいて、新燃岳の火山情報もでていました。


 
ブログランキングに参加しています。
にほんブログ村 環境ブログ 天気・気象学へ
にほんブログ村
応援クリックをおねがします。


以下、アフィリエイトサイトです。




22:36  |  気象・天気  |  TB(0)  |  CM(0)  |  EDIT  |  Top↑

2010.06.22 (Tue)

噴火と強雨の桜島

RJFK 220700Z 36003KT 320V030 9999 -RA BCFG FEW001 SCT005 BKN035 23/23 Q1009
RMK 1ST001 4ST005 6SC035 A2982 VOLCANIC SMELL 3100FT KBE A320 FG NE-S


RJFK 221043Z 28008KT 2000 R34/1200VP1800D +SHRA BR FEW001 SCT006 BKN015 21/21 Q1010 RETS
RMK 1ST001 4ST006 6CU015 A2984 P/RR RI++


九州南部は、いま、梅雨前線の影響で大雨が降っています。


視程の悪化、低い雲、さらに大雨によるブレーキ性能の低下。


周辺の桜島の噴火も頻発しています。


この季節は、厳しい空港のひとつと言えるでしょう。



 
ブログランキングに参加しています。
にほんブログ村 環境ブログ 天気・気象学へ
にほんブログ村
応援クリックをおねがします。


以下、アフィリエイトサイトです。




23:33  |  気象・天気  |  TB(0)  |  CM(0)  |  EDIT  |  Top↑

2010.06.21 (Mon)

夏至

夏至(げし)です。


 二十四節気のひとつで、例年6月21日ごろです。


また、この日から小暑までの期間のことも「夏至」と言います。



太陽黄経が90度。


 北半球では昼の一番長く、夜が短い日です。ですが、例年、梅雨の真っ只中です。

暦便覧には、「陽熱至極しまた、日の長きのいたりなるを以てなり」と記され、旧暦は五月中になります。






 夏至の日には北緯66.6度以北の北極圏全域で白夜となり、南緯66.6度以南の南極圏全域で極夜となります。

白夜の読みは「はくや」と読んでいましたが、1970年(昭和45年)に加藤登紀子さんがリリースした「知床旅情」
(作詞・作曲 森繁久彌)のヒットが「びゃくや」の読みを広めるきっかけになったらしいです。



夏至の期間の七十二候は以下の通り。

初候

乃東枯          (ないとう かるる)
              夏枯草が枯れる (日本)

鹿角解          (しかの つの おつ)
              鹿が角を落とす  (中国)


次候

菖蒲華          (しょうぶ はなさく)
              あやめの花が咲く (日本)

蜩始鳴          (せみ はじめて なく)
              蝉が鳴き始める(中国)


末候

半夏生          (はんげ しょうず)
              烏柄杓が生える(日本・中国)


 
ブログランキングに参加しています。
にほんブログ村 環境ブログ 天気・気象学へ
にほんブログ村
応援クリックをおねがします。


以下、アフィリエイトサイトです。




23:01  |  二十四節気  |  TB(0)  |  CM(0)  |  EDIT  |  Top↑

2010.06.20 (Sun)

バフォケンで勝利を!

24日、デンマーク戦が行われるロイヤル・バフォケン・スタジアムです。


最寄の空港は、ルステンブルク空港。


ICAOコード:FARG


滑走路 16/34 アスファルト塗装 非精密進入

標高 1128m/3700ft

aviation gasoline は、100/130(ブルー)

いわゆる一般的なレシプロエンジン(ピストンエンジン)用の燃料しかなく、また滑走路も短いことから、ジェットで来ることはないのではないだろうか。


燃料を積んで、小型ジェットで移動か、陸路か。


天気予報をしたかったのですが、私の知っている航空気象サイトにおいて、FARGの天気データはなく、どのような天気になるのか、現在不明。


まぁ、この時期の南アフリカは快晴なんでしょうけど。


 
ブログランキングに参加しています。
にほんブログ村 環境ブログ 天気・気象学へ
にほんブログ村
応援クリックをおねがします。


以下、アフィリエイトサイトです。




19:36  |  時事  |  TB(0)  |  CM(0)  |  EDIT  |  Top↑

2010.06.19 (Sat)

ダーバンの空港

FALE 191400Z 05016KT CAVOK 22/07 Q1020 NOSIG


南アフリカ共和国、ダーバンにある国際空港、キング・シャカ国際空港。


今年の5月1日に開港したできたてほやほや。


IATAコードはDUR、ICAOコードFALE。


天気はよかったのですが、日本は惜敗。


残念。

 
ブログランキングに参加しています。
にほんブログ村 環境ブログ 天気・気象学へ
にほんブログ村
応援クリックをおねがします。


以下、アフィリエイトサイトです。




23:35  |  時事  |  TB(0)  |  CM(0)  |  EDIT  |  Top↑

2010.06.18 (Fri)

もう少しで猛暑

17日は、各地で暑かったようです。


天気予報を、朝、見ていたら、京都で34℃と予報。


猛暑日になるかもって。


夏 日:25℃超

真夏日:30℃超

猛暑日:35℃超


静岡では、午後2時ごろ34℃を記録。


主因は南からの湿った空気の流入です。


少し高台の静岡空港でも30℃を超えました。


あついあつい。


これだけ、エネルギーが流入すると、明日以降、荒れそうです。


 
ブログランキングに参加しています。
にほんブログ村 環境ブログ 天気・気象学へ
にほんブログ村
応援クリックをおねがします。


以下、アフィリエイトサイトです。




10:18  |  時事  |  TB(0)  |  CM(0)  |  EDIT  |  Top↑

2010.06.17 (Thu)

紫陽花のヒミツ

紫陽花



紫陽花は、咲き始めのころは白く、その後、様々な色に変わることから「七変化」と呼ばれることもあります。


七色の変化をすることから”紫陽”の名がついたことが、「七変化」から連想できます。


”紫”には、色の意味と「七色」の意味も持っています。


七色の雲「彩雲」には、「瑞雲」「景雲」「紫雲」とも呼ばれることから、”紫”の漢字の意味がわかるでしょう。


「あじさい」の名は「藍色が集まったもの」を意味する「あづさい(集真藍)」が訛ったものと言われています。


また、世間の常識、「土壌のpH(酸性度)が、色の主原因である。」、というのは、間違いであることには、最近、驚きました。


 
ブログランキングに参加しています。
にほんブログ村 環境ブログ 天気・気象学へ
にほんブログ村
応援クリックをおねがします。


以下、アフィリエイトサイトです。




09:50  |  時事  |  TB(0)  |  CM(0)  |  EDIT  |  Top↑

2010.06.16 (Wed)

すべての地域で

今日、16日に気象庁が東北地方も梅雨いりしたことを発表しました。


梅雨がない北海道を除いて、梅雨のあるすべての地域で、梅雨いり。


東北では、平年より4日遅く、昨年より12日遅かったです。


すると、沖縄で梅雨明け間近です。
 

 
ブログランキングに参加しています。
にほんブログ村 環境ブログ 天気・気象学へ
にほんブログ村
応援クリックをおねがします。


以下、アフィリエイトサイトです。




23:30  |  時事  |  TB(0)  |  CM(0)  |  EDIT  |  Top↑

2010.06.15 (Tue)

紫陽花には毒がある

紫陽花



梅雨に入って、じめじめ空気になったような気がするのは、私だけでしょうか。


近所の公園を散歩すると紫陽花(あじさい)が咲き始めています。


季節を感じる紫陽花ですが、いつだったか、何年前だったか。。。


庭先の紫陽花の葉っぱを料理にそえたところ、お客さんがそれを食べて中毒を起こすという事故が発生したことがあったと思います。


そう、紫陽花には毒があるのです。


食べてはいけません。


 
ブログランキングに参加しています。
にほんブログ村 環境ブログ 天気・気象学へ
にほんブログ村
応援クリックをおねがします。


以下、アフィリエイトサイトです。




18:32  |  時事  |  TB(0)  |  CM(0)  |  EDIT  |  Top↑

2010.06.14 (Mon)

関東入梅

RJTT 140830Z 35015KT 2000 -RADZ BR FEW003 BKN007 BKN010 18/17 Q1010 RMK 1ST003 5ST007 6ST010 A2984


RJAA 140630Z 07009KT 2000 -RA BR FEW002 BKN005 19/18 Q1012 BECMG 05009KT


梅雨に入りました。


雨です。


なんだか、霧雨っぽい。


実際、羽田、成田では霧雨で視程が悪化。


成田でわかるように北東風が吹き、気温が上がらず。


さむい。


 
ブログランキングに参加しています。
にほんブログ村 環境ブログ 天気・気象学へ
にほんブログ村
応援クリックをおねがします。


以下、アフィリエイトサイトです。




23:46  |  気象・天気  |  TB(0)  |  CM(0)  |  EDIT  |  Top↑

2010.06.13 (Sun)

近畿まで梅雨いり

梅雨入り近畿東海



RJOO 122100Z 07010KT 9999 FEW025 SCT100 OVC150 22/15 Q1012 RMK 1CU025 4AC100 8AS150 A2991


RJOO 122200Z 07010KT 9999 -RA FEW025 SCT100 OVC120 22/15 Q1013 RMK 1CU025 4AC100 8AS120 A2992


大阪は午前7時から雨。


RJGG 130100Z 12015KT 9999 FEW015 SCT020 BKN/// 25/17 Q1014 NOSIG


RJGG 130130Z 13018KT 9999 VCSH FEW015 SCT025 BKN040 24/17 Q1014 NOSIG


名古屋は10時半から雨。


入梅発表。


関東は明日の朝から雨が降って、入梅でしょう。


 
ブログランキングに参加しています。
にほんブログ村 環境ブログ 天気・気象学へ
にほんブログ村
応援クリックをおねがします。


以下、アフィリエイトサイトです。




23:04  |  気象・天気  |  TB(0)  |  CM(0)  |  EDIT  |  Top↑

2010.06.12 (Sat)

入梅

昨日、11日は入梅でした。


梅の実が成る時期で、この時期の雨だから「梅雨」。


中国から伝わった言葉だそうです。


今年の梅は、初夏の雨と寒暖の差にやられて、収穫量が減っているようです。



入梅
出典: フリー百科事典『ウィキペディア(Wikipedia)』

入梅(にゅうばい、ついり、つゆいり)は雑節の一つで、太陽が黄経80度の点を通過する日。毎年6月11日頃。本来は「梅雨入り」の漢語的表現であり、梅雨の季節全体を「入梅」と呼ぶ地方もある(西関東方言における用法は「入梅に入る」)。

太陽黄経に基づく定義は現在のもので、芒種の後の最初の壬の日を梅雨入り、小暑の後の最初の壬の日を梅雨明けとしていた時期もあった。本当の梅雨入り・梅雨明けの日付は年により、地方により異なるものであるが、農家にとって梅雨入りの時期を知ることは田植えの日取りを決めるのに重要だったので、その目安としてこの暦日が設けられた。

現在は、気象庁の本庁、管区気象台及び地方中枢官署(新潟、名古屋、広島、高松、鹿児島の各地方気象台)が、観測及び予報に基づいて梅雨入りを発表しており、「入梅」は実際の梅雨とは関係のない暦日となっている。

 
ブログランキングに参加しています。
にほんブログ村 環境ブログ 天気・気象学へ
にほんブログ村
応援クリックをおねがします。


以下、アフィリエイトサイトです。




01:23  |  二十四節気  |  TB(0)  |  CM(0)  |  EDIT  |  Top↑

2010.06.11 (Fri)

箱根より西はすっこーーーんと晴れ

 関東はなんだか曇り空。


成田空港の早朝は霧でした。

RJAA 101930Z 03003KT 4000 R34L/P1800N R34R/0900VP1800U MIFG BR NSC 17/16 Q1015 BECMG 6000 NSW RMK 1SC060 A2999


晴れているんだけど、たまに風が冷たく感じるような。


気温はそれなりに高く、湿気があるようなのでちょっとむっと感じるような。。。


洗濯物の乾きが悪そうです。




ASAS11JUN10.jpg
11日午前9時 地上解析図


 西から背の高い高気圧に覆われています。


全層にわたって覆われているわけでなく、低層においては東の低気圧の影響を受けています。



AUPQ78_11JUN10.jpg
11日午前9時 700,850hPa 高層天気図




AUPQ78_11JUN10EX.jpg
11日午前9時 850hPa 高層天気図 拡大


 関東はかなり湿っています。


静岡より西では、露点差が10度を超えてカラッカラの乾いた空気。


関東特有の低層の曇り状態です。


明日はカラッと晴れるのは間違いありません。



エマグラム11JUN10館野
エマグラム 館野 11日午前9時



エマグラム11JUN10浜松
エマグラム 静岡 11日午前9時


 館野と静岡を比べると、静岡のほうが低層でも乾いています。


静岡空のMETAR
RJNH 110428Z 20009KT 160V220 9999 FEW020 BKN025 25/18 Q1015 RMK 1CU020 5CU025 A2998


低層の雲のみで中、高層には雲はありません。


 また、2つとも3000m付近より高い高度では完全に乾いた空気が流れてきています。


館野において、1500m(5000ft)付近まで露点差がほとんどなく、雲が発生しているようです。


今日の空の旅は、高度3000m、およそ10000ft、離陸後5分くらいでベルト着用サインが切れて、澄んだ雲のない青空の中を飛ぶことになっていたでしょう。


いいなぁ。


成田空港のMETAR
RJAA 110230Z 14008KT 9999 FEW020 BKN030 BKN/// 22/17 Q1016 NOSIG RMK 1CU020 6SC030 A3000


中部空港のMETAR
RJGG 110500Z 16010KT 9999 FEW025 27/18 Q1014 NOSIG


 
ブログランキングに参加しています。
にほんブログ村 環境ブログ 天気・気象学へ
にほんブログ村
応援クリックをおねがします。


以下、アフィリエイトサイトです。




18:00  |  気象・天気  |  TB(0)  |  CM(0)  |  EDIT  |  Top↑

2010.06.10 (Thu)

少ない台風発生数。

今年の台風はまだ1個しか発生していません。


気象庁のデータベース


5月までに台風が1個しか発生してない年は過去10年で、2006年、2001年。


6月までも発生しなかった年は、過去60年で2回、1998年、1973年。


1998年の天候はどうだったのでしょうか?


ウィキペディアより

エルニーニョ現象の影響で世界的な異常気象。日本でも年間平均気温は顕著な高温となり、西日本、南西諸島で戦後最も気温の高い年となった。世界の平均気温も史上1位の高温となった。
台風の年間発生数16個となり史上最少。

冬(1997年12月~1998年2月)は北日本で平年並みの寒さであったが、東日本以西は記録的な暖冬となり、南岸低気圧による大雪が東日本太平洋側を中心に相次いだ。
春(3~5)月は歴代1位の暖春。4月の下旬に北海道の一部で真夏日を観測するなど型破りな高温となった。
夏(6~8月)は西日本以南・北陸地方で高温となった他、太平洋高気圧が安定しなかったため北日本・北海道は冷夏傾向となり、東日本も気温は平年並~高めながらも天候不順が続き、豪雨災害も多発した。
秋(9~11月)は全国的に顕著な高温となり、台風の接近・上陸が多かった。

1月8日 -南岸低気圧の通過で関東地方で記録的な大雪。首都圏を中心に交通機関が乱れる。その7日後の1月15日にも再び関東地方を中心に大雪が降る(両日とも東海地方以西の太平洋側はほとんど雨となった)。
8月下旬 - 台風4号の影響で東日本を中心に大雨。
9月16日 - 台風5号が東海地方に上陸。
9月21日 - 台風7号が和歌山県に上陸。近畿地方を中心に被害が出る。
9月24日~25日 - 秋雨前線の活発化により、四国地方南部で長時間の大雨。高知市などで大規模な浸水被害が発生。
10月17日 - 台風10号が鹿児島県に上陸。
11月17日~18日 - しし座流星群が33年ぶりにピーク。世界各地で流星が観測された。


今年と似ているところもあれば、そうでないところもあります。


さてさて。 


ブログランキングに参加しています。
にほんブログ村 環境ブログ 天気・気象学へ
にほんブログ村
応援クリックをおねがします。


以下、アフィリエイトサイトです。




23:50  |  気象・天気  |  TB(0)  |  CM(0)  |  EDIT  |  Top↑

2010.06.09 (Wed)

フェーン現象

6月7日、山形でフェーン発生。


気温30度超えを記録。


もともと起こりやすい地域ですが。


下記にウィキペディアよりの抜粋を表記。


フェーン現象

フェーン現象という名前は、もともとフェーン(独:Föhn)というアルプス山中で吹く局地風から来ており、この局地風というのがまさに風がアルプスを越えたときに吹く乾いた暖かい風のことである。現在は一般用語として使われており、本来のフェーンのほかに、北米のロッキー山脈を越えて吹く風チヌークなど、世界各地の同様の風もフェーンと呼ばれる。ただし、NHKの天気予報では、フェーン気味に気温が上昇と言う表現を使っている。なお、漢字による当て字は岡田武松が考案した「風炎」である。




目次
1 分類
1.1 湿ったフェーン-非断熱加熱説
1.2 乾いたフェーン-力学説
2 被害
3 日本におけるフェーン現象
4 世界におけるフェーン現象
5 関連項目

分類
フェーン現象には二つの種類がある。すなわち、熱力学的な断熱変化によって起こるフェーン現象と力学的に起こるフェーン現象である。前者を湿ったフェーン、後者を乾いたフェーンという。乾いたフェーンは風が山を越えなくても起こるフェーン現象として知られている。この両者の現象の発生を唱え、フェーン現象の本格的な研究を行ったのはオーストリアの気象・気候学者ハン(1839年~1921年)である。ハンはフェーン現象の研究のほか、上昇気流による断熱変化、高気圧論など、気象力学(特に気象熱力学)の研究で業績を上げた。

湿ったフェーン-非断熱加熱説
具体的な例から説明する。ここに、ある山があるとし、その山の高さを1000mとする。その麓を地点A、さらにその山を越えた麓を地点Bとする。地点Aの気温を15℃とし、ここで地点AからBの方向に向けて風が吹いているとする。もちろんその風は、山肌にぶつかり行き場を失って上昇気流として山を登り始める。気温は高度とともに減少するので、この風が空気を飽和させるのに十分な水蒸気を含んでいる場合、山を上昇中のどこかで空気が飽和して雲が発生し、最終的には山に雨を降らせる。湿った空気の温度減率(これを湿潤断熱減率という)は、空気中に含まれる水蒸気が凝縮する際に熱を放出させる凝縮熱から、平均の温度減率(0.6℃/100m)よりも小さい。すなわち湿潤断熱減率は約0.5℃/100mである。その割合で温度が低下していくならば、山の頂上1000m付近では温度が10℃となるはずである。また、降水によって空気は水蒸気を殆ど失ってしまったとすると、今度は空気が乾燥しているので温度減率(これを乾燥断熱減率という)は湿潤温度減率よりも大きい約1℃/100mである。そうするとB地点での温度は20℃となる。よってB地点ではA地点よりも気温が高く、乾燥した風が吹くということになる。このフェーン現象は、湿った空気を前に伴ったものという意味で湿ったフェーン現象と呼ぶ。今述べた例のように断熱変化を伴うので、熱力学的現象として捉えられる。

乾いたフェーン-力学説
ハンはまず前者の非断熱加熱説を研究したとされるが、その後ハンは、風上側で水蒸気の凝結を伴う断熱変化が起こらなくても、フェーン現象は十分起こりうるということを考え出した。あまり厳密な説明ではないが、これは次のような事柄である。今、湿ったフェーンが起こったときと全く同じ状態の例を考える。A地点の気温は15℃だが、この空気は上昇せずに、そこにとどまっているとする。また、空気の平均的な気温減率は約0.6℃/100mなので、これに従うとその時の山頂の温度は9℃ということになる。この山頂の空気が乾燥しているとすると、B地点に下降気流として下りてきたときの温度は乾燥断熱減率より19℃ということになる。よってA地点の空気よりもB地点の方が高いのでフェーン現象が起きたということになるのだ。これはもとから乾いた空気が力学的にフェーンを起こしたという意味で乾いたフェーンと呼ばれる。空気が山を登り、その後空気が重くなって吹き降ろすことは明らかだが、流体力学では空気が単に地面と平行に移動していて、山の頂上付近にさしかかると、風の速さによってはその空気が下降気流となって下降してしまうことが知られている。これが乾いたフェーンを起こす原因ともなる。

被害
フェーン現象は時には非常に乾燥した強い突風ともなることがあるので、火災などの深刻な被害を招くこともしばしばある。よってフェーン現象の時には火災などの厳重な注意が必要であるといえる(鳥取大火や酒田大火は特に有名)。

日本におけるフェーン現象
1933年7月25日、山形県山形市の気象台で日本の気温の当時における最高記録40.8℃を記録した際も、フェーン現象が原因とされる。(現在の最高記録は2007年8月16日の岐阜県多治見市および埼玉県熊谷市で40.9℃。)このときの湿度は26%と、かなり低いものであった。これは湿った風が山にあたって、山を越えたときに吹く乾いた暖かい下降気流によるものである。

フェーン現象は山地が多い日本でも頻繁に起きる現象である。日本では日本海に台風や前線を伴う温帯低気圧があり、強い南風が吹くとき日本海側では暖かく乾いた風が吹く。実際、春にこの現象によって日本海側では一気に雪解けが進むことが多い。これだけではなく例えば冬、季節風によって日本海側で雪や雨を降らせた後、山を越えて太平洋側に乾いた空気として吹くのもフェーン現象と考えてよい。しかし、空気のもとが寒気なのでいくら山を越えても太平洋側の温度はそれほど暖かくなることは通常ない(俗にいう「からっ風」)。

世界におけるフェーン現象
アメリカのロッキー山脈を吹き下ろすチヌークと呼ばれる地方風もまたフェーン現象を伴う。サウスダコタ州で 1943年1月22日 にわずか2分間で摂氏27度も気温が急上昇する現象が発生している。また同じサウスダコタ州では 1911年1月10日 にわずか15分間で摂氏26度も気温が低下した記録がある。

 
ブログランキングに参加しています。
にほんブログ村 環境ブログ 天気・気象学へ
にほんブログ村
応援クリックをおねがします。


以下、アフィリエイトサイトです。




16:04  |  気象・天気  |  TB(0)  |  CM(0)  |  EDIT  |  Top↑

2010.06.08 (Tue)

上空から下り坂

RJTT 080100Z 06010KT 9999 FEW020 SCT050 BKN120 21/16 Q1017
RMK 1CU020 3SC050 6AC120 A3004
MOD TURB BTN 9000 AND 11000FT 10NM S MORIYA VOR BY B777 AT 0049


RJTT 080230Z 08007KT 9999 FEW020 BKN130 21/16 Q1017
RMK 1CU020 7AC130 A3004
MOD TURB BTN 20000 AND 18000FT 20NM N AMI BY B767 AT 0202
AND BTN 13000 AND 11000FT OVER AMI BY B767 AT 0205


 本日も、10000ftあたりと17000ftあたりでMOD TURBの通報がありました。



ASAS08JUN10.jpg
8日午前9時 地上解析図


 地上天気図の概況は、日本の南に前線を伴った低気圧が存在していますが、関東周辺に顕著な気圧の変化はありません。


 上空はどうなっているのでしょう?



AUPQ35_08JUN10.jpg
高層天気図AUPQ35



AUPQ78_08JUN10.jpg
高層天気図AUPQ78


すべての気圧において、九州・四国・中国地方を覆う低気圧が存在します。


高層の低気圧の中心は、日本の南に存在する低気圧と直接対応していません。


つまり、急な発達は近々にないことが言えます。


 AUPQ78において、赤直線が地上の前線に対応しています。


今回の低気圧は弱い切離低気圧(寒冷渦)の東南縁に対応したものです。


すなわち、関東地方は上空から天気が下り坂であることが言えます。



エマグラム08JUN10
8日午前9時 館野 エマグラム


 館野のエマグラムより、上空はすでに湿ってきています。


5000m付近に逆転層、その付近に高積雲、その上はかなり湿って薄い雲が広がっていそうです。


また、2800m付近にも逆転層があります。


5000m≒16000-17000ft
2800m≒ 9000-10000ft


RJTT 080000Z 07005KT 9999 FEW020 BKN120 OVC150 20/16 Q1017 RMK 1CU020 5AC120 8AS150 A3005


午前9時の羽田空港のMETARからも、この辺りの高度で積雲系の雲が発生しています。


逆転層と関連おおありです。


したがって、この2つの高度付近での揺れが理解できます。


(おまけ)


 AUPQ35より、赤丸の部分は上空の寒気が一人ぼっちで浮遊しています。


AUPQ78や地上天には現れていません。


気象衛星画像を見てみると、ゆっくりと渦を巻いていることが見られます。


その南に積雲の塊が確認できますので、もしかしたら、この二つが合わさって台風ができるかもしれません。


 

ブログランキングに参加しています。
にほんブログ村 環境ブログ 天気・気象学へ
にほんブログ村
応援クリックをおねがします。


以下、アフィリエイトサイトです。




18:00  |  気象・天気  |  TB(0)  |  CM(0)  |  EDIT  |  Top↑

2010.06.07 (Mon)

上層のMOD解析

RJTT 070600Z 18015KT 9999 FEW025 BKN/// 25/17 Q1015
RMK 1CU025 A2999 MOD TURB FL160 SPENS BY B767 AT 0538 AND
BTN 13000FT AND FL170 30NM SW OTAKI BY B773 AT 0553


RJTT 070900Z 19012KT 9999 FEW030 SCT040 BKN/// 24/15 Q1016
RMK 1CU030 3SC040 A3001 MOD TURB BTN 20000 AND 17000FT AROUND XAC BY A306 AT 0834


今日の注目はRMK、国内記事のMOD TURB情報です。


いい天気なのに、上空の荒れ。


この中間のMETARから

RJTT 070700Z 18014KT 9999 FEW030 SCT180 BKN/// 24/16 Q1015 RMK 1CU030 4AC180 A2998

RJTT 070800Z 20011KT 9999 FEW030 SCT190 BKN/// 24/15 Q1015 RMK 1CU030 3AC190 A2999


高度18000-19000ft付近に、AC:高積雲の存在がわかります。


また、下記のエマグラム、八丈島のものですが、高度19000ft付近に逆転層と風の変化が見て取れます。


エマグラム07JUN10



 
ブログランキングに参加しています。
にほんブログ村 環境ブログ 天気・気象学へ
にほんブログ村
応援クリックをおねがします。


以下、アフィリエイトサイトです。




22:44  |  気象・天気  |  TB(0)  |  CM(0)  |  EDIT  |  Top↑

2010.06.06 (Sun)

芒種

芒種(ぼうしゅ)

 二十四節気のひとつで、この日から夏至までの期間にあたります。

太陽黄経が75度。


 暦便覧には「芒(のぎ)ある穀類、稼種する時なり」と記され、実際には、現在の種まきはこれよりも早いようですね。


 芒(のぎ : イネ科植物の果実を包む穎(えい)すなわち稲でいう籾殻にあるとげのような突起)を持った植物の種をまく頃で、五月節です。


 だいたいこの時期に西日本では梅雨入りのころとなります。


紫陽花


芒種の七十二候は以下のとおり。


初候

螳螂生        (とうろう しょうず)
             螳螂が生まれ出る(日本・中国)



次候

腐草為蛍       (ふそう ほたると なる)
             腐った草が蒸れ蛍になる(日本)

鵙始鳴        (もず はじめて なく)
             鵙が鳴き始める(中国)     


末候

梅子黄        (うめのみ き なり)
             梅の実が黄ばんで熟す(日本)

反舌無声       (はんぜつ こえ なし)
             鶯が鳴かなくなる(中国)


 
ブログランキングに参加しています。
にほんブログ村 環境ブログ 天気・気象学へ
にほんブログ村
応援クリックをおねがします。


以下、アフィリエイトサイトです。




23:53  |  二十四節気  |  TB(0)  |  CM(0)  |  EDIT  |  Top↑

2010.06.05 (Sat)

岩手で雹(ひょう)

岩手県で雹が降ったようです。


花巻空港のMETAR時系列の中では、雷雨が記録されています。


上空には寒気があり、これが影響したようです。


RJSI 050200Z 17004KT 110V220 9999 FEW030 SCT070 BKN/// 18/12 Q1013

RJSI 050300Z 16005KT 120V200 9999 TS FEW030CB SCT070 BKN/// 19/13 Q1012

RJSI 050342Z 23008KT 200V330 9999 FEW020 FEW030TCU SCT080 BKN/// 20/13 Q1012 RETS RMK 1CU020 1TCU030 3AC080 A2990 TCU 15KM NE AND 5KM SW-NW MOV UNKN

RJSI 050400Z 23006KT 190V280 9999 FEW030 BKN/// 20/13 Q1012 RETS

RJSI 050440Z 22004KT 120V270 9999 TS FEW020 FEW030CB SCT050 BKN/// 21/12 Q1012 RMK 2CU020 1CB030 4CU050 A2988 FBL TS 15KM NE MOV UNKN

RJSI 050500Z 16007KT 090V200 9999 TS FEW020CB SCT030 BKN050 20/13 Q1011

RJSI 050600Z 15007KT 110V180 9999 -TSRA FEW005 FEW015CB SCT025 BKN050 16/13 Q1012

RJSI 050628Z 17005KT 130V190 9999 -SHRA FEW010 SCT025 BKN050 15/13 Q1012 RETS RMK 1ST010 3CU025 5CU050 A2990

RJSI 050700Z 17003KT 120V210 9999 -SHRA FEW010 SCT025 BKN050 16/13 Q1012 RETS

RJSI 050800Z 22005KT 170V250 9999 FEW010 SCT025 BKN080 16/13 Q1012


AUPQ35_05JUN10.jpg





ブログランキングに参加しています。
にほんブログ村 環境ブログ 天気・気象学へ
にほんブログ村
応援クリックをおねがします。


以下、アフィリエイトサイトです。




22:18  |  気象・天気  |  TB(0)  |  CM(0)  |  EDIT  |  Top↑

2010.06.04 (Fri)

上空に寒気あり

RJTT 040500Z 18018KT 9999 FEW030 25/15 Q1013 RMK 1CU030 A2992


RJTT 041330Z 13011KT 9999 -SHRA FEW030 BKN120 20/16 Q1013 RMK 1CU030 6AC120 A2992


天気予報の予報どおり、夜に雨が降り始めました。


遠くで雷鳴が聞こえます。


昼は低い積雲が昨日より多く、房総半島や栃木のほうに雄大積雲が見えます。


これらが発達したのでしょうか?





6月3日に桜島で噴煙があがりました。


桜島:また噴火、2日連続「ドカ灰」 鹿児島市街地、清掃・散水車が出動 /鹿児島
6月4日16時51分配信 毎日新聞

 桜島の昭和火口で2日にあった噴火で「灰神楽」となった鹿児島市街地では3日早朝から、後片づけに追われた。だが、午後2時13分に再び昭和火口で噴火を観測。噴煙が1200メートル上がり、市街地に2日連続の「ドカ灰」が降った。
 市役所前の歩道も一面灰色一色。午前中に散水車が乗り付け、作業員がブラシを使いながら洗い流した。
 市によると、路面清掃車や散水車など計59台を出動させ、3日間程度で清掃を終わらせたいという。克灰袋を甲突町や照国町など市内29町2万世帯に4日から配布する。克灰袋は地域福祉館や支所でも配布しており、配布世帯の拡大も検討している。
 鹿児島地方気象台によると、灰を洗い流してくれる雨は「しばらく期待できない」という。

 
ブログランキングに参加しています。
にほんブログ村 環境ブログ 天気・気象学へ
にほんブログ村
応援クリックをおねがします。


以下、アフィリエイトサイトです。




23:01  |  気象・天気  |  TB(0)  |  CM(0)  |  EDIT  |  Top↑

2010.06.03 (Thu)

夏日とCB:積乱雲

RJTT 030500Z 17012KT 9999 FEW030 25/10 Q1016 RMK 1CU030 A3003


RJAA 030500Z 14013KT 9999 FEW030CB 24/12 Q1017 NOSIG RMK 1CB030 A3004 CB NNW


とってもいい天気。


庭のバラもきれいに咲いています。


ところによって積乱雲がたっているようなので、雨にも注意が必要です。


しかし、一過性の可能性が強いので、雨が降ってきてもしばらく待っていれば止むでしょう。



 
ブログランキングに参加しています。
にほんブログ村 環境ブログ 天気・気象学へ
にほんブログ村
応援クリックをおねがします。


以下、アフィリエイトサイトです。




18:51  |  気象・天気  |  TB(0)  |  CM(0)  |  EDIT  |  Top↑

2010.06.02 (Wed)

バブルジェットと積乱雲(こじつけ)

いい天気です。


雲ひとつ見当たりません。


こういう天気のときは、上空に沈降層があるときかもしれません。


すなわち寒気。


AUPQ35_02JUN10.jpg




ところどころ雷ってのが相場でしょうか。


雷といえば、積乱雲。


成長過程の積乱雲の直上はいい天気のときがあります。


積乱雲の発生・成長過程において、周りの空気の水分量に対し影響が少ないからです。


んで、下の映像。


積乱雲の直上は晴れていても、飛行機が避けて通る理由のひとつでしょう。


見えない力が働いているのです。






 
ブログランキングに参加しています。
にほんブログ村 環境ブログ 天気・気象学へ
にほんブログ村
応援クリックをおねがします。


以下、アフィリエイトサイトです。




23:41  |  気象・天気  |  TB(0)  |  CM(0)  |  EDIT  |  Top↑

2010.06.01 (Tue)

入梅はいつ???

梅雨入り沖縄奄美



6月になりました。


九州が入梅する時期です。


週間天気予報を見ていますと、しばらく晴れが続く様子。


また、偏西風もまだ南にあり、梅雨前線ははるか南の海上にあります。


今年の梅雨入りは遅れそうですね。


ブログランキングに参加しています。
にほんブログ村 環境ブログ 天気・気象学へ
にほんブログ村
応援クリックをおねがします。


以下、アフィリエイトサイトです。




19:36  |  気象・天気  |  TB(0)  |  CM(0)  |  EDIT  |  Top↑
 | BLOGTOP |